SJX870 RCTP-ROAH
Flight info
| Callsign | SJX870 |
|---|---|
| Flight time | 1h 1m |
| Altitude | 29000 |
| Route | KUDOS1B KUDOS R595 SEDKU Y573 MJC Y57 VELNO VELNON |
| Aircraft | A359/H-SDE2E3GHIJ3J4J5LM1ORWXY/LB1D1 |
Departure
| Time | 2026-04-22 09:22 |
|---|---|
| Airport | Taiwan Taoyuan International Airport (RCTP) |
Arrival
| Time | 2026-04-22 10:24 |
|---|---|
| Airport | Naha International Airport (ROAH) |
| Time | Latitude | Longitude | Altitude | Speed | Heading |
|---|---|---|---|---|---|
| 2026-04-22 09:11 | 25.08075 | 121.24038 | 106 ft | 0 kts | 319° |
| 2026-04-22 09:13 | 25.08076 | 121.24038 | 106 ft | 2 kts | 319° |
| 2026-04-22 09:13 | 25.08061 | 121.24051 | 107 ft | 3 kts | 323° |
| 2026-04-22 09:13 | 25.08045 | 121.24064 | 112 ft | 3 kts | 327° |
| 2026-04-22 09:13 | 25.08028 | 121.24075 | 102 ft | 3 kts | 333° |
| 2026-04-22 09:14 | 25.08010 | 121.24084 | 105 ft | 3 kts | 341° |
| 2026-04-22 09:14 | 25.07991 | 121.24091 | 106 ft | 3 kts | 353° |
| 2026-04-22 09:14 | 25.07972 | 121.24092 | 106 ft | 3 kts | 10° |
| 2026-04-22 09:14 | 25.07956 | 121.24087 | 106 ft | 3 kts | 35° |
| 2026-04-22 09:15 | 25.07948 | 121.24081 | 106 ft | 0 kts | 49° |
| 2026-04-22 09:15 | 25.07961 | 121.24098 | 106 ft | 4 kts | 49° |
| 2026-04-22 09:15 | 25.07969 | 121.24108 | 107 ft | 0 kts | 49° |
| 2026-04-22 09:17 | 25.07970 | 121.24110 | 107 ft | 2 kts | 48° |
| 2026-04-22 09:17 | 25.08004 | 121.24151 | 107 ft | 11 kts | 49° |
| 2026-04-22 09:18 | 25.08059 | 121.24222 | 107 ft | 14 kts | 50° |
| 2026-04-22 09:18 | 25.08116 | 121.24295 | 107 ft | 10 kts | 50° |
| 2026-04-22 09:18 | 25.08130 | 121.24370 | 107 ft | 11 kts | 108° |
| 2026-04-22 09:18 | 25.08077 | 121.24439 | 106 ft | 13 kts | 138° |
| 2026-04-22 09:19 | 25.08058 | 121.24531 | 106 ft | 14 kts | 64° |
| 2026-04-22 09:19 | 25.08122 | 121.24619 | 106 ft | 16 kts | 50° |
| 2026-04-22 09:19 | 25.08200 | 121.24717 | 105 ft | 18 kts | 47° |
| 2026-04-22 09:19 | 25.08277 | 121.24814 | 105 ft | 14 kts | 49° |
| 2026-04-22 09:20 | 25.08345 | 121.24900 | 106 ft | 16 kts | 50° |
| 2026-04-22 09:20 | 25.08412 | 121.24989 | 105 ft | 13 kts | 51° |
| 2026-04-22 09:20 | 25.08423 | 121.25086 | 106 ft | 15 kts | 116° |
| 2026-04-22 09:20 | 25.08344 | 121.25152 | 101 ft | 11 kts | 167° |
| 2026-04-22 09:21 | 25.08271 | 121.25126 | 101 ft | 12 kts | 221° |
| 2026-04-22 09:21 | 25.08249 | 121.25100 | 102 ft | 0 kts | 228° |
| 2026-04-22 09:22 | 25.08178 | 121.25011 | 100 ft | 47 kts | 229° |
| 2026-04-22 09:22 | 25.07803 | 121.24535 | 102 ft | 115 kts | 229° |
| 2026-04-22 09:22 | 25.07158 | 121.23727 | 300 ft | 154 kts | 230° |
| 2026-04-22 09:22 | 25.06450 | 121.22870 | 1074 ft | 150 kts | 230° |
| 2026-04-22 09:23 | 25.05745 | 121.21965 | 1642 ft | 164 kts | 231° |
| 2026-04-22 09:23 | 25.04957 | 121.20944 | 1911 ft | 184 kts | 230° |
| 2026-04-22 09:23 | 25.04143 | 121.19819 | 2437 ft | 190 kts | 236° |
| 2026-04-22 09:23 | 25.03696 | 121.18435 | 3096 ft | 198 kts | 261° |
| 2026-04-22 09:24 | 25.04003 | 121.16911 | 3729 ft | 216 kts | 292° |
| 2026-04-22 09:24 | 25.05037 | 121.15659 | 4268 ft | 232 kts | 313° |
| 2026-04-22 09:24 | 25.06357 | 121.14493 | 4533 ft | 253 kts | 315° |
| 2026-04-22 09:24 | 25.07801 | 121.13244 | 4813 ft | 272 kts | 315° |
| 2026-04-22 09:25 | 25.09307 | 121.11923 | 5300 ft | 280 kts | 315° |
| 2026-04-22 09:25 | 25.10828 | 121.10574 | 5927 ft | 281 kts | 314° |
| 2026-04-22 09:25 | 25.12357 | 121.09206 | 6537 ft | 283 kts | 314° |
| 2026-04-22 09:25 | 25.13876 | 121.07839 | 7194 ft | 281 kts | 314° |
| 2026-04-22 09:26 | 25.15391 | 121.06472 | 7873 ft | 280 kts | 314° |
| 2026-04-22 09:26 | 25.16901 | 121.05119 | 8526 ft | 281 kts | 316° |
| 2026-04-22 09:26 | 25.18611 | 121.04026 | 9178 ft | 289 kts | 333° |
| 2026-04-22 09:26 | 25.20623 | 121.03656 | 9855 ft | 301 kts | 356° |
| 2026-04-22 09:27 | 25.22675 | 121.04184 | 10270 ft | 320 kts | 20° |
| 2026-04-22 09:27 | 25.24491 | 121.05724 | 10475 ft | 344 kts | 49° |
| 2026-04-22 09:27 | 25.25641 | 121.08114 | 10674 ft | 360 kts | 70° |
| 2026-04-22 09:27 | 25.26765 | 121.10635 | 10823 ft | 372 kts | 54° |
| 2026-04-22 09:28 | 25.28300 | 121.12984 | 11021 ft | 383 kts | 51° |
| 2026-04-22 09:28 | 25.29938 | 121.15353 | 11303 ft | 391 kts | 50° |
| 2026-04-22 09:28 | 25.31604 | 121.17748 | 11722 ft | 394 kts | 50° |
| 2026-04-22 09:28 | 25.33281 | 121.20161 | 12136 ft | 397 kts | 50° |
| 2026-04-22 09:29 | 25.34963 | 121.22592 | 12537 ft | 400 kts | 51° |
| 2026-04-22 09:29 | 25.36440 | 121.25225 | 12950 ft | 405 kts | 64° |
| 2026-04-22 09:29 | 25.37283 | 121.28161 | 13346 ft | 408 kts | 81° |
| 2026-04-22 09:29 | 25.37364 | 121.31292 | 13745 ft | 408 kts | 98° |
| 2026-04-22 09:30 | 25.36688 | 121.34326 | 14112 ft | 407 kts | 112° |
| 2026-04-22 09:30 | 25.35654 | 121.37244 | 14444 ft | 409 kts | 115° |
| 2026-04-22 09:30 | 25.34569 | 121.40165 | 14778 ft | 412 kts | 115° |
| 2026-04-22 09:30 | 25.33484 | 121.43110 | 15143 ft | 415 kts | 115° |
| 2026-04-22 09:31 | 25.32401 | 121.46075 | 15514 ft | 417 kts | 115° |
| 2026-04-22 09:31 | 25.31314 | 121.49068 | 15833 ft | 420 kts | 114° |
| 2026-04-22 09:31 | 25.30225 | 121.52071 | 16178 ft | 423 kts | 114° |
| 2026-04-22 09:31 | 25.29131 | 121.55095 | 16535 ft | 425 kts | 114° |
| 2026-04-22 09:32 | 25.28027 | 121.58146 | 16870 ft | 428 kts | 114° |
| 2026-04-22 09:32 | 25.26915 | 121.61217 | 17177 ft | 430 kts | 114° |
| 2026-04-22 09:32 | 25.25801 | 121.64289 | 17538 ft | 432 kts | 114° |
| 2026-04-22 09:32 | 25.24678 | 121.67385 | 17865 ft | 434 kts | 114° |
| 2026-04-22 09:33 | 25.23566 | 121.70454 | 18179 ft | 436 kts | 114° |
| 2026-04-22 09:33 | 25.22436 | 121.73568 | 18468 ft | 438 kts | 114° |
| 2026-04-22 09:33 | 25.21300 | 121.76699 | 18770 ft | 439 kts | 114° |
| 2026-04-22 09:33 | 25.20159 | 121.79838 | 19057 ft | 441 kts | 114° |
| 2026-04-22 09:34 | 25.19012 | 121.82992 | 19333 ft | 443 kts | 114° |
| 2026-04-22 09:34 | 25.17860 | 121.86155 | 19638 ft | 445 kts | 114° |
| 2026-04-22 09:34 | 25.16706 | 121.89323 | 19928 ft | 446 kts | 114° |
| 2026-04-22 09:35 | 25.14376 | 121.95712 | 20484 ft | 451 kts | 114° |
| 2026-04-22 09:35 | 25.13333 | 121.98995 | 20735 ft | 455 kts | 106° |
| 2026-04-22 09:35 | 25.12731 | 122.02438 | 21003 ft | 458 kts | 99° |
| 2026-04-22 09:35 | 25.12348 | 122.05890 | 21280 ft | 460 kts | 96° |
| 2026-04-22 09:36 | 25.12067 | 122.09413 | 21541 ft | 462 kts | 95° |
| 2026-04-22 09:36 | 25.11828 | 122.12956 | 21806 ft | 464 kts | 95° |
| 2026-04-22 09:36 | 25.11589 | 122.16521 | 22054 ft | 466 kts | 95° |
| 2026-04-22 09:36 | 25.11332 | 122.20097 | 22299 ft | 468 kts | 95° |
| 2026-04-22 09:37 | 25.11086 | 122.23295 | 22540 ft | 470 kts | 95° |
| 2026-04-22 09:37 | 25.10795 | 122.26894 | 22783 ft | 472 kts | 96° |
| 2026-04-22 09:37 | 25.10492 | 122.30507 | 23033 ft | 474 kts | 96° |
| 2026-04-22 09:37 | 25.10164 | 122.34127 | 23282 ft | 476 kts | 96° |
| 2026-04-22 09:38 | 25.09811 | 122.37769 | 23493 ft | 478 kts | 97° |
| 2026-04-22 09:38 | 25.09448 | 122.41421 | 23704 ft | 479 kts | 97° |
| 2026-04-22 09:38 | 25.09082 | 122.45081 | 23908 ft | 481 kts | 97° |
| 2026-04-22 09:38 | 25.08717 | 122.48755 | 24112 ft | 482 kts | 96° |
| 2026-04-22 09:39 | 25.08354 | 122.52439 | 24322 ft | 484 kts | 96° |
| 2026-04-22 09:39 | 25.07993 | 122.56136 | 24526 ft | 485 kts | 96° |
| 2026-04-22 09:39 | 25.07632 | 122.59839 | 24741 ft | 487 kts | 96° |
| 2026-04-22 09:39 | 25.07269 | 122.63561 | 24953 ft | 488 kts | 96° |
| 2026-04-22 09:40 | 25.06905 | 122.67293 | 25160 ft | 490 kts | 96° |
| 2026-04-22 09:40 | 25.06544 | 122.70985 | 25369 ft | 491 kts | 96° |
| 2026-04-22 09:40 | 25.06172 | 122.74780 | 25592 ft | 492 kts | 96° |
| 2026-04-22 09:40 | 25.05806 | 122.78498 | 25805 ft | 494 kts | 96° |
| 2026-04-22 09:41 | 25.05434 | 122.82263 | 26020 ft | 495 kts | 96° |
| 2026-04-22 09:41 | 25.05058 | 122.86052 | 26242 ft | 497 kts | 96° |
| 2026-04-22 09:41 | 25.04681 | 122.89849 | 26461 ft | 499 kts | 96° |
| 2026-04-22 09:41 | 25.04302 | 122.93660 | 26685 ft | 500 kts | 96° |
| 2026-04-22 09:42 | 25.03920 | 122.97480 | 26913 ft | 502 kts | 96° |
| 2026-04-22 09:42 | 25.03538 | 123.01312 | 27139 ft | 503 kts | 96° |
| 2026-04-22 09:42 | 25.03156 | 123.05154 | 27364 ft | 505 kts | 96° |
| 2026-04-22 09:42 | 25.02770 | 123.09010 | 27591 ft | 507 kts | 96° |
| 2026-04-22 09:43 | 25.02381 | 123.12883 | 27827 ft | 509 kts | 96° |
| 2026-04-22 09:43 | 25.01993 | 123.16725 | 28059 ft | 510 kts | 96° |
| 2026-04-22 09:43 | 25.01601 | 123.20625 | 28297 ft | 512 kts | 96° |
| 2026-04-22 09:43 | 25.01206 | 123.24540 | 28534 ft | 514 kts | 96° |
| 2026-04-22 09:44 | 25.00806 | 123.28464 | 28770 ft | 516 kts | 96° |
| 2026-04-22 09:44 | 25.00400 | 123.32423 | 28849 ft | 525 kts | 96° |
| 2026-04-22 09:44 | 24.99566 | 123.40543 | 28850 ft | 540 kts | 96° |
| 2026-04-22 09:45 | 24.99136 | 123.44716 | 28846 ft | 552 kts | 96° |
| 2026-04-22 09:45 | 24.98698 | 123.48965 | 28849 ft | 561 kts | 96° |
| 2026-04-22 09:45 | 24.97809 | 123.57542 | 28849 ft | 563 kts | 96° |
| 2026-04-22 09:46 | 24.96916 | 123.66112 | 28854 ft | 563 kts | 96° |
| 2026-04-22 09:46 | 24.96023 | 123.74642 | 28854 ft | 563 kts | 96° |
| 2026-04-22 09:47 | 24.95120 | 123.83207 | 28857 ft | 562 kts | 96° |
| 2026-04-22 09:47 | 24.94213 | 123.91766 | 28865 ft | 562 kts | 96° |
| 2026-04-22 09:48 | 24.93302 | 124.00320 | 28861 ft | 562 kts | 96° |
| 2026-04-22 09:48 | 24.92341 | 124.08876 | 28869 ft | 562 kts | 97° |
| 2026-04-22 09:49 | 24.91329 | 124.17357 | 28871 ft | 561 kts | 97° |
| 2026-04-22 09:49 | 24.90309 | 124.25891 | 28871 ft | 561 kts | 97° |
| 2026-04-22 09:50 | 24.89297 | 124.34413 | 28881 ft | 561 kts | 97° |
| 2026-04-22 09:50 | 24.88285 | 124.42938 | 28875 ft | 561 kts | 97° |
| 2026-04-22 09:51 | 24.87269 | 124.51460 | 28866 ft | 561 kts | 97° |
| 2026-04-22 09:51 | 24.86248 | 124.59974 | 28880 ft | 560 kts | 97° |
| 2026-04-22 09:52 | 24.85223 | 124.68478 | 28862 ft | 560 kts | 97° |
| 2026-04-22 09:52 | 24.84200 | 124.76929 | 28879 ft | 560 kts | 97° |
| 2026-04-22 09:53 | 24.83166 | 124.85423 | 28873 ft | 559 kts | 97° |
| 2026-04-22 09:53 | 24.82131 | 124.93925 | 28872 ft | 559 kts | 98° |
| 2026-04-22 09:54 | 24.81086 | 125.02412 | 28850 ft | 559 kts | 98° |
| 2026-04-22 09:54 | 24.80038 | 125.10878 | 28848 ft | 558 kts | 98° |
| 2026-04-22 09:55 | 24.78993 | 125.19303 | 28858 ft | 558 kts | 98° |
| 2026-04-22 09:55 | 24.78655 | 125.27793 | 28886 ft | 556 kts | 81° |
| 2026-04-22 09:56 | 24.79594 | 125.31898 | 28891 ft | 553 kts | 67° |
| 2026-04-22 09:56 | 24.81266 | 125.35687 | 28872 ft | 550 kts | 59° |
| 2026-04-22 09:56 | 24.85216 | 125.42879 | 28879 ft | 549 kts | 55° |
| 2026-04-22 09:57 | 24.89348 | 125.49951 | 28896 ft | 549 kts | 54° |
| 2026-04-22 09:57 | 24.93445 | 125.57057 | 28888 ft | 549 kts | 55° |
| 2026-04-22 09:58 | 24.97475 | 125.64163 | 28893 ft | 550 kts | 56° |
| 2026-04-22 09:58 | 25.01509 | 125.71327 | 28890 ft | 550 kts | 56° |
| 2026-04-22 09:59 | 25.04850 | 125.77276 | 28909 ft | 532 kts | 56° |
| 2026-04-22 09:59 | 25.08663 | 125.84073 | 28801 ft | 518 kts | 56° |
| 2026-04-22 10:00 | 25.10538 | 125.87414 | 28560 ft | 506 kts | 56° |
| 2026-04-22 10:00 | 25.12371 | 125.90685 | 28316 ft | 496 kts | 55° |
| 2026-04-22 10:00 | 25.14182 | 125.93914 | 28062 ft | 495 kts | 55° |
| 2026-04-22 10:00 | 25.15996 | 125.97144 | 27812 ft | 494 kts | 55° |
| 2026-04-22 10:01 | 25.17803 | 126.00367 | 27574 ft | 493 kts | 55° |
| 2026-04-22 10:01 | 25.19610 | 126.03592 | 27318 ft | 491 kts | 56° |
| 2026-04-22 10:01 | 25.21406 | 126.06803 | 27070 ft | 490 kts | 56° |
| 2026-04-22 10:01 | 25.23195 | 126.10004 | 26835 ft | 488 kts | 56° |
| 2026-04-22 10:02 | 25.24972 | 126.13186 | 26597 ft | 486 kts | 56° |
| 2026-04-22 10:02 | 25.26742 | 126.16360 | 26359 ft | 485 kts | 56° |
| 2026-04-22 10:02 | 25.28489 | 126.19491 | 26128 ft | 483 kts | 56° |
| 2026-04-22 10:02 | 25.30248 | 126.22647 | 25889 ft | 482 kts | 56° |
| 2026-04-22 10:03 | 25.32004 | 126.25800 | 25648 ft | 480 kts | 56° |
| 2026-04-22 10:03 | 25.33751 | 126.28940 | 25429 ft | 479 kts | 56° |
| 2026-04-22 10:03 | 25.35494 | 126.32073 | 25206 ft | 477 kts | 56° |
| 2026-04-22 10:03 | 25.37226 | 126.35189 | 24974 ft | 476 kts | 56° |
| 2026-04-22 10:04 | 25.38953 | 126.38299 | 24745 ft | 474 kts | 56° |
| 2026-04-22 10:04 | 25.40678 | 126.41406 | 24527 ft | 473 kts | 56° |
| 2026-04-22 10:04 | 25.42394 | 126.44499 | 24304 ft | 472 kts | 56° |
| 2026-04-22 10:04 | 25.44110 | 126.47595 | 24088 ft | 470 kts | 56° |
| 2026-04-22 10:05 | 25.45819 | 126.50679 | 23866 ft | 469 kts | 56° |
| 2026-04-22 10:05 | 25.47506 | 126.53728 | 23503 ft | 462 kts | 56° |
| 2026-04-22 10:05 | 25.49183 | 126.56765 | 22948 ft | 458 kts | 56° |
| 2026-04-22 10:05 | 25.50834 | 126.59766 | 22368 ft | 454 kts | 57° |
| 2026-04-22 10:06 | 25.52445 | 126.62700 | 21806 ft | 450 kts | 57° |
| 2026-04-22 10:06 | 25.54071 | 126.65662 | 21172 ft | 449 kts | 57° |
| 2026-04-22 10:06 | 25.55686 | 126.68606 | 20609 ft | 446 kts | 57° |
| 2026-04-22 10:06 | 25.57287 | 126.71526 | 20049 ft | 442 kts | 57° |
| 2026-04-22 10:07 | 25.58875 | 126.74423 | 19505 ft | 438 kts | 57° |
| 2026-04-22 10:07 | 25.60453 | 126.77304 | 18951 ft | 435 kts | 57° |
| 2026-04-22 10:07 | 25.62016 | 126.80156 | 18399 ft | 432 kts | 57° |
| 2026-04-22 10:07 | 25.63572 | 126.82998 | 17811 ft | 429 kts | 57° |
| 2026-04-22 10:08 | 25.65114 | 126.85817 | 17253 ft | 424 kts | 57° |
| 2026-04-22 10:08 | 25.66632 | 126.88594 | 16712 ft | 419 kts | 57° |
| 2026-04-22 10:08 | 25.68116 | 126.91310 | 16197 ft | 414 kts | 58° |
| 2026-04-22 10:08 | 25.69598 | 126.94028 | 15643 ft | 409 kts | 58° |
| 2026-04-22 10:09 | 25.71065 | 126.96720 | 15136 ft | 405 kts | 58° |
| 2026-04-22 10:09 | 25.72508 | 126.99369 | 14699 ft | 399 kts | 58° |
| 2026-04-22 10:09 | 25.73935 | 127.01990 | 14224 ft | 394 kts | 58° |
| 2026-04-22 10:09 | 25.75346 | 127.04581 | 13697 ft | 391 kts | 58° |
| 2026-04-22 10:10 | 25.76745 | 127.07151 | 13159 ft | 387 kts | 58° |
| 2026-04-22 10:10 | 25.78129 | 127.09696 | 12632 ft | 383 kts | 58° |
| 2026-04-22 10:10 | 25.79496 | 127.12211 | 12154 ft | 378 kts | 58° |
| 2026-04-22 10:10 | 25.80477 | 127.14016 | 11789 ft | 375 kts | 58° |
| 2026-04-22 10:11 | 25.81816 | 127.16481 | 11308 ft | 371 kts | 58° |
| 2026-04-22 10:11 | 25.83127 | 127.18897 | 11099 ft | 358 kts | 58° |
| 2026-04-22 10:11 | 25.84385 | 127.21216 | 10985 ft | 343 kts | 58° |
| 2026-04-22 10:11 | 25.85590 | 127.23440 | 10870 ft | 329 kts | 58° |
| 2026-04-22 10:12 | 25.86734 | 127.25550 | 10773 ft | 316 kts | 58° |
| 2026-04-22 10:12 | 25.87852 | 127.27614 | 10648 ft | 307 kts | 58° |
| 2026-04-22 10:12 | 25.88969 | 127.29620 | 10367 ft | 304 kts | 55° |
| 2026-04-22 10:12 | 25.90442 | 127.31297 | 9882 ft | 307 kts | 31° |
| 2026-04-22 10:13 | 25.92331 | 127.32395 | 9236 ft | 305 kts | 22° |
| 2026-04-22 10:13 | 25.94268 | 127.33345 | 8358 ft | 304 kts | 21° |
| 2026-04-22 10:13 | 25.96190 | 127.34281 | 7668 ft | 298 kts | 21° |
| 2026-04-22 10:13 | 25.98095 | 127.35220 | 7369 ft | 299 kts | 22° |
| 2026-04-22 10:14 | 25.99988 | 127.36163 | 7011 ft | 297 kts | 22° |
| 2026-04-22 10:14 | 26.01858 | 127.37100 | 6686 ft | 293 kts | 22° |
| 2026-04-22 10:14 | 26.03705 | 127.38029 | 6361 ft | 290 kts | 22° |
| 2026-04-22 10:14 | 26.05511 | 127.38939 | 6040 ft | 289 kts | 22° |
| 2026-04-22 10:15 | 26.07339 | 127.39861 | 5736 ft | 287 kts | 22° |
| 2026-04-22 10:15 | 26.09153 | 127.40776 | 5417 ft | 286 kts | 22° |
| 2026-04-22 10:15 | 26.10960 | 127.41690 | 5115 ft | 284 kts | 22° |
| 2026-04-22 10:15 | 26.12758 | 127.42600 | 4807 ft | 283 kts | 22° |
| 2026-04-22 10:16 | 26.14552 | 127.43507 | 4493 ft | 283 kts | 22° |
| 2026-04-22 10:16 | 26.16342 | 127.44411 | 4197 ft | 282 kts | 23° |
| 2026-04-22 10:16 | 26.18125 | 127.45314 | 3877 ft | 281 kts | 23° |
| 2026-04-22 10:16 | 26.19903 | 127.46215 | 3599 ft | 280 kts | 23° |
| 2026-04-22 10:17 | 26.21664 | 127.47106 | 3367 ft | 274 kts | 23° |
| 2026-04-22 10:17 | 26.23357 | 127.47965 | 3260 ft | 262 kts | 23° |
| 2026-04-22 10:17 | 26.24984 | 127.48792 | 3142 ft | 251 kts | 23° |
| 2026-04-22 10:17 | 26.26541 | 127.49582 | 3028 ft | 241 kts | 23° |
| 2026-04-22 10:18 | 26.28039 | 127.50343 | 2897 ft | 233 kts | 23° |
| 2026-04-22 10:18 | 26.29502 | 127.51085 | 2682 ft | 230 kts | 23° |
| 2026-04-22 10:18 | 26.30939 | 127.51813 | 2497 ft | 223 kts | 24° |
| 2026-04-22 10:18 | 26.32268 | 127.52645 | 2383 ft | 213 kts | 36° |
| 2026-04-22 10:19 | 26.33270 | 127.53762 | 2126 ft | 204 kts | 55° |
| 2026-04-22 10:19 | 26.33875 | 127.55206 | 2101 ft | 208 kts | 76° |
| 2026-04-22 10:19 | 26.34101 | 127.56795 | 1684 ft | 208 kts | 90° |
| 2026-04-22 10:19 | 26.34151 | 127.58371 | 1306 ft | 198 kts | 92° |
| 2026-04-22 10:20 | 26.34185 | 127.59856 | 1226 ft | 189 kts | 92° |
| 2026-04-22 10:20 | 26.34012 | 127.61297 | 1224 ft | 188 kts | 113° |
| 2026-04-22 10:20 | 26.33217 | 127.62388 | 1234 ft | 179 kts | 151° |
| 2026-04-22 10:20 | 26.32075 | 127.62755 | 1244 ft | 167 kts | 177° |
| 2026-04-22 10:21 | 26.30931 | 127.62808 | 1244 ft | 164 kts | 180° |
| 2026-04-22 10:21 | 26.29807 | 127.62836 | 1207 ft | 159 kts | 180° |
| 2026-04-22 10:21 | 26.28719 | 127.62870 | 1208 ft | 154 kts | 180° |
| 2026-04-22 10:21 | 26.27658 | 127.62910 | 1210 ft | 152 kts | 180° |
| 2026-04-22 10:22 | 26.26634 | 127.62954 | 1204 ft | 138 kts | 180° |
| 2026-04-22 10:22 | 26.25724 | 127.62999 | 1215 ft | 126 kts | 179° |
| 2026-04-22 10:22 | 26.24855 | 127.63038 | 1185 ft | 126 kts | 180° |
| 2026-04-22 10:22 | 26.23973 | 127.63068 | 979 ft | 126 kts | 181° |
| 2026-04-22 10:23 | 26.23100 | 127.63102 | 759 ft | 125 kts | 179° |
| 2026-04-22 10:23 | 26.22232 | 127.63166 | 529 ft | 124 kts | 179° |
| 2026-04-22 10:23 | 26.21377 | 127.63205 | 264 ft | 124 kts | 184° |
| 2026-04-22 10:23 | 26.20517 | 127.63230 | 109 ft | 124 kts | 180° |
| 2026-04-22 10:24 | 26.19666 | 127.63265 | 26 ft | 111 kts | 177° |
| 2026-04-22 10:24 | 26.19055 | 127.63300 | 21 ft | 64 kts | 177° |
| 2026-04-22 10:24 | 26.18683 | 127.63317 | 22 ft | 44 kts | 178° |
| 2026-04-22 10:24 | 26.18482 | 127.63376 | 27 ft | 27 kts | 153° |
| 2026-04-22 10:25 | 26.18384 | 127.63441 | 28 ft | 10 kts | 139° |
| 2026-04-22 10:25 | 26.18382 | 127.63503 | 28 ft | 9 kts | 45° |
| 2026-04-22 10:25 | 26.18443 | 127.63517 | 26 ft | 10 kts | 0° |
| 2026-04-22 10:25 | 26.18526 | 127.63516 | 24 ft | 13 kts | 358° |
| 2026-04-22 10:26 | 26.18630 | 127.63511 | 26 ft | 17 kts | 358° |
| 2026-04-22 10:26 | 26.18757 | 127.63504 | 23 ft | 20 kts | 357° |
| 2026-04-22 10:26 | 26.18904 | 127.63497 | 23 ft | 23 kts | 358° |
| 2026-04-22 10:26 | 26.19068 | 127.63488 | 23 ft | 25 kts | 358° |
| 2026-04-22 10:27 | 26.19248 | 127.63480 | 23 ft | 27 kts | 358° |
| 2026-04-22 10:27 | 26.19443 | 127.63471 | 24 ft | 28 kts | 358° |
| 2026-04-22 10:27 | 26.19626 | 127.63463 | 26 ft | 28 kts | 358° |
| 2026-04-22 10:27 | 26.19825 | 127.63453 | 25 ft | 30 kts | 357° |
| 2026-04-22 10:28 | 26.19994 | 127.63445 | 27 ft | 24 kts | 358° |
| 2026-04-22 10:28 | 26.20151 | 127.63439 | 23 ft | 15 kts | 359° |
| 2026-04-22 10:28 | 26.20244 | 127.63435 | 25 ft | 9 kts | 359° |
| 2026-04-22 10:28 | 26.20294 | 127.63476 | 23 ft | 10 kts | 68° |
| 2026-04-22 10:29 | 26.20304 | 127.63572 | 24 ft | 16 kts | 87° |
| 2026-04-22 10:29 | 26.20309 | 127.63720 | 24 ft | 21 kts | 87° |
| 2026-04-22 10:29 | 26.20316 | 127.63892 | 26 ft | 23 kts | 88° |
| 2026-04-22 10:29 | 26.20323 | 127.64079 | 27 ft | 25 kts | 88° |
| 2026-04-22 10:30 | 26.20328 | 127.64217 | 23 ft | 7 kts | 88° |
| 2026-04-22 10:30 | 26.20343 | 127.64282 | 25 ft | 10 kts | 61° |
| 2026-04-22 10:30 | 26.20404 | 127.64315 | 26 ft | 11 kts | 355° |
| 2026-04-22 10:30 | 26.20490 | 127.64310 | 26 ft | 14 kts | 358° |
| 2026-04-22 10:31 | 26.20596 | 127.64320 | 26 ft | 17 kts | 10° |
| 2026-04-22 10:31 | 26.20722 | 127.64350 | 24 ft | 20 kts | 13° |
| 2026-04-22 10:31 | 26.20833 | 127.64378 | 22 ft | 15 kts | 13° |
| 2026-04-22 10:31 | 26.20922 | 127.64450 | 23 ft | 17 kts | 59° |
| 2026-04-22 10:32 | 26.20968 | 127.64580 | 23 ft | 16 kts | 73° |
| 2026-04-22 10:32 | 26.20980 | 127.64677 | 23 ft | 14 kts | 84° |
| 2026-04-22 10:32 | 26.21036 | 127.64748 | 27 ft | 13 kts | 20° |
| 2026-04-22 10:32 | 26.21134 | 127.64747 | 24 ft | 15 kts | 357° |
| 2026-04-22 10:33 | 26.21247 | 127.64742 | 29 ft | 17 kts | 357° |
| 2026-04-22 10:33 | 26.21292 | 127.64740 | 26 ft | 0 kts | 359° |
| 2026-04-22 10:33 | 26.21295 | 127.64744 | 27 ft | 0 kts | 26° |
| 2026-04-22 10:33 | 26.21301 | 127.64752 | 27 ft | 5 kts | 51° |
| 2026-04-22 10:34 | 26.21311 | 127.64792 | 28 ft | 6 kts | 85° |
| 2026-04-22 10:34 | 26.21293 | 127.64842 | 28 ft | 8 kts | 129° |
| 2026-04-22 10:34 | 26.21236 | 127.64870 | 28 ft | 10 kts | 168° |
| 2026-04-22 10:34 | 26.21164 | 127.64877 | 27 ft | 11 kts | 176° |
| 2026-04-22 10:35 | 26.21106 | 127.64883 | 27 ft | 6 kts | 168° |
| 2026-04-22 10:35 | 26.21076 | 127.64916 | 27 ft | 6 kts | 110° |
| 2026-04-22 10:35 | 26.21076 | 127.64932 | 27 ft | 0 kts | 91° |
| 2026-04-22 10:35 | 26.21075 | 127.64951 | 28 ft | 6 kts | 90° |
| 2026-04-22 10:36 | 26.21075 | 127.64967 | 28 ft | 0 kts | 90° |